Terminal Aerodrome Forecast
Issued by NWS

Home | Current Version | Previous Version | Text Only | Print | Product List | Glossary On
Versions: 1 2 3 4 5 6 7 8 9 10 11 12 13 14 15 16 17 18 19 20 21 22 23 24 25 26 27 28 29 30 31 32 33 34 35 36
000
FTUS46 KPQR 032320
TAFONP
TAF
KONP 032320Z 0400/0424 36016G23KT 6SM HZ SKC
     FM040400 35009KT P6SM SCT008
     FM040700 34006KT P6SM OVC009
     FM041500 VRB03KT P6SM OVC015
     FM041700 24008KT P6SM OVC025=

USA.gov is the U.S. government's official web portal to all federal, state and local government web resources and services.